sensor_id;sensor_type;location;lat;lon;timestamp;temperature;humidity
52211;DHT22;38179;52.756;6.906;2022-11-04T00:01:55;11.10;99.90
52211;DHT22;38179;52.756;6.906;2022-11-04T00:04:23;11.10;99.90
52211;DHT22;38179;52.756;6.906;2022-11-04T00:06:50;11.00;99.90
52211;DHT22;38179;52.756;6.906;2022-11-04T00:09:18;11.00;99.90
52211;DHT22;38179;52.756;6.906;2022-11-04T00:11:45;10.90;99.90
52211;DHT22;38179;52.756;6.906;2022-11-04T00:14:31;10.90;99.90
52211;DHT22;38179;52.756;6.906;2022-11-04T00:16:57;10.90;99.90
52211;DHT22;38179;52.756;6.906;2022-11-04T00:19:42;10.90;99.90
52211;DHT22;38179;52.756;6.906;2022-11-04T00:22:26;10.80;99.90
52211;DHT22;38179;52.756;6.906;2022-11-04T00:25:11;10.80;99.90
52211;DHT22;38179;52.756;6.906;2022-11-04T00:30:58;10.60;99.90
52211;DHT22;38179;52.756;6.906;2022-11-04T00:33:45;10.70;99.90
52211;DHT22;38179;52.756;6.906;2022-11-04T00:36:11;10.60;99.90
52211;DHT22;38179;52.756;6.906;2022-11-04T00:38:37;10.60;99.90
52211;DHT22;38179;52.756;6.906;2022-11-04T00:41:03;10.60;99.90
52211;DHT22;38179;52.756;6.906;2022-11-04T00:43:49;10.60;99.90
52211;DHT22;38179;52.756;6.906;2022-11-04T00:46:15;10.60;99.90
52211;DHT22;38179;52.756;6.906;2022-11-04T00:48:40;10.60;99.90
52211;DHT22;38179;52.756;6.906;2022-11-04T00:51:06;10.60;99.90
52211;DHT22;38179;52.756;6.906;2022-11-04T00:53:32;10.60;99.90
52211;DHT22;38179;52.756;6.906;2022-11-04T00:55:58;10.50;99.90
52211;DHT22;38179;52.756;6.906;2022-11-04T00:58:24;10.50;99.90
52211;DHT22;38179;52.756;6.906;2022-11-04T01:00:50;10.50;99.90
52211;DHT22;38179;52.756;6.906;2022-11-04T01:03:16;10.50;99.90
52211;DHT22;38179;52.756;6.906;2022-11-04T01:05:42;10.50;99.90
52211;DHT22;38179;52.756;6.906;2022-11-04T01:08:07;10.40;99.90
52211;DHT22;38179;52.756;6.906;2022-11-04T01:10:35;10.40;99.90
52211;DHT22;38179;52.756;6.906;2022-11-04T01:13:10;10.40;99.90
52211;DHT22;38179;52.756;6.906;2022-11-04T01:15:36;10.40;99.90
52211;DHT22;38179;52.756;6.906;2022-11-04T01:18:03;10.40;99.90
52211;DHT22;38179;52.756;6.906;2022-11-04T01:20:30;10.40;99.90
52211;DHT22;38179;52.756;6.906;2022-11-04T01:22:56;10.40;99.90
52211;DHT22;38179;52.756;6.906;2022-11-04T01:25:22;10.40;99.90
52211;DHT22;38179;52.756;6.906;2022-11-04T01:27:48;10.40;99.90
52211;DHT22;38179;52.756;6.906;2022-11-04T01:30:13;10.30;99.90
52211;DHT22;38179;52.756;6.906;2022-11-04T01:32:39;10.30;99.90
52211;DHT22;38179;52.756;6.906;2022-11-04T01:35:06;10.20;99.90
52211;DHT22;38179;52.756;6.906;2022-11-04T01:37:32;10.20;99.90
52211;DHT22;38179;52.756;6.906;2022-11-04T01:39:58;10.20;99.90
52211;DHT22;38179;52.756;6.906;2022-11-04T01:42:23;10.20;99.90
52211;DHT22;38179;52.756;6.906;2022-11-04T01:44:52;10.20;99.90
52211;DHT22;38179;52.756;6.906;2022-11-04T01:50:16;10.10;99.90
52211;DHT22;38179;52.756;6.906;2022-11-04T01:52:49;10.10;99.90
52211;DHT22;38179;52.756;6.906;2022-11-04T01:55:28;10.20;99.90
52211;DHT22;38179;52.756;6.906;2022-11-04T01:58:02;10.20;99.90
52211;DHT22;38179;52.756;6.906;2022-11-04T02:00:29;10.20;99.90
52211;DHT22;38179;52.756;6.906;2022-11-04T02:03:19;10.20;99.90
52211;DHT22;38179;52.756;6.906;2022-11-04T02:05:45;10.20;99.90
52211;DHT22;38179;52.756;6.906;2022-11-04T02:08:14;10.20;99.90
52211;DHT22;38179;52.756;6.906;2022-11-04T02:10:59;10.30;99.90
52211;DHT22;38179;52.756;6.906;2022-11-04T02:13:30;10.30;99.90
52211;DHT22;38179;52.756;6.906;2022-11-04T02:24:25;10.30;99.90
52211;DHT22;38179;52.756;6.906;2022-11-04T02:27:20;10.30;99.90
52211;DHT22;38179;52.756;6.906;2022-11-04T02:38:35;10.40;99.90
52211;DHT22;38179;52.756;6.906;2022-11-04T02:41:26;10.40;99.90
52211;DHT22;38179;52.756;6.906;2022-11-04T02:46:39;10.40;99.90
52211;DHT22;38179;52.756;6.906;2022-11-04T02:49:09;10.40;99.90
52211;DHT22;38179;52.756;6.906;2022-11-04T02:51:42;10.40;99.90
52211;DHT22;38179;52.756;6.906;2022-11-04T02:56:41;10.30;99.90
52211;DHT22;38179;52.756;6.906;2022-11-04T02:59:14;10.40;99.90
52211;DHT22;38179;52.756;6.906;2022-11-04T03:01:42;10.30;99.90
52211;DHT22;38179;52.756;6.906;2022-11-04T03:04:21;10.30;99.90
52211;DHT22;38179;52.756;6.906;2022-11-04T03:06:49;10.30;99.90
52211;DHT22;38179;52.756;6.906;2022-11-04T03:09:18;10.30;99.90
52211;DHT22;38179;52.756;6.906;2022-11-04T03:11:49;10.20;99.90
52211;DHT22;38179;52.756;6.906;2022-11-04T03:14:27;10.20;99.90
52211;DHT22;38179;52.756;6.906;2022-11-04T03:16:58;10.20;99.90
52211;DHT22;38179;52.756;6.906;2022-11-04T03:22:04;10.10;99.90
52211;DHT22;38179;52.756;6.906;2022-11-04T03:24:32;10.10;99.90
52211;DHT22;38179;52.756;6.906;2022-11-04T03:30:22;10.20;99.90
52211;DHT22;38179;52.756;6.906;2022-11-04T03:33:09;10.10;99.90
52211;DHT22;38179;52.756;6.906;2022-11-04T03:35:37;10.10;99.90
52211;DHT22;38179;52.756;6.906;2022-11-04T03:38:03;10.10;99.90
52211;DHT22;38179;52.756;6.906;2022-11-04T03:40:28;10.10;99.90
52211;DHT22;38179;52.756;6.906;2022-11-04T03:43:07;10.00;99.90
52211;DHT22;38179;52.756;6.906;2022-11-04T03:45:35;10.00;99.90
52211;DHT22;38179;52.756;6.906;2022-11-04T03:48:01;10.00;99.90
52211;DHT22;38179;52.756;6.906;2022-11-04T03:50:37;10.00;99.90
52211;DHT22;38179;52.756;6.906;2022-11-04T03:53:03;10.00;99.90
52211;DHT22;38179;52.756;6.906;2022-11-04T04:03:59;9.90;99.90
52211;DHT22;38179;52.756;6.906;2022-11-04T04:06:28;9.90;99.90
52211;DHT22;38179;52.756;6.906;2022-11-04T04:09:08;9.90;99.90
52211;DHT22;38179;52.756;6.906;2022-11-04T04:11:57;9.80;99.90
52211;DHT22;38179;52.756;6.906;2022-11-04T04:14:33;9.80;99.90
52211;DHT22;38179;52.756;6.906;2022-11-04T04:17:17;9.80;99.90
52211;DHT22;38179;52.756;6.906;2022-11-04T04:19:50;9.80;99.90
52211;DHT22;38179;52.756;6.906;2022-11-04T04:22:24;9.80;99.90
52211;DHT22;38179;52.756;6.906;2022-11-04T04:24:53;9.80;99.90
52211;DHT22;38179;52.756;6.906;2022-11-04T04:27:41;9.70;99.90
52211;DHT22;38179;52.756;6.906;2022-11-04T04:30:15;9.60;99.90
52211;DHT22;38179;52.756;6.906;2022-11-04T04:32:47;9.60;99.90
52211;DHT22;38179;52.756;6.906;2022-11-04T04:35:14;9.60;99.90
52211;DHT22;38179;52.756;6.906;2022-11-04T04:38:02;9.60;99.90
52211;DHT22;38179;52.756;6.906;2022-11-04T04:40:56;9.60;99.90
52211;DHT22;38179;52.756;6.906;2022-11-04T04:43:42;9.50;99.90
52211;DHT22;38179;52.756;6.906;2022-11-04T04:46:28;9.60;99.90
52211;DHT22;38179;52.756;6.906;2022-11-04T04:48:54;9.50;99.90
52211;DHT22;38179;52.756;6.906;2022-11-04T04:51:20;9.50;99.90
52211;DHT22;38179;52.756;6.906;2022-11-04T04:53:47;9.50;99.90
52211;DHT22;38179;52.756;6.906;2022-11-04T04:56:12;9.50;99.90
52211;DHT22;38179;52.756;6.906;2022-11-04T04:58:38;9.50;99.90
52211;DHT22;38179;52.756;6.906;2022-11-04T05:01:04;9.50;99.90
52211;DHT22;38179;52.756;6.906;2022-11-04T05:03:31;9.60;99.90
52211;DHT22;38179;52.756;6.906;2022-11-04T05:05:58;9.50;99.90
52211;DHT22;38179;52.756;6.906;2022-11-04T05:08:24;9.50;99.90
52211;DHT22;38179;52.756;6.906;2022-11-04T05:10:50;9.50;99.90
52211;DHT22;38179;52.756;6.906;2022-11-04T05:13:16;9.50;99.90
52211;DHT22;38179;52.756;6.906;2022-11-04T05:15:51;9.50;99.90
52211;DHT22;38179;52.756;6.906;2022-11-04T05:18:18;9.50;99.90
52211;DHT22;38179;52.756;6.906;2022-11-04T05:20:44;9.60;99.90
52211;DHT22;38179;52.756;6.906;2022-11-04T05:23:10;9.60;99.90
52211;DHT22;38179;52.756;6.906;2022-11-04T05:25:37;9.60;99.90
52211;DHT22;38179;52.756;6.906;2022-11-04T05:28:07;9.50;99.90
52211;DHT22;38179;52.756;6.906;2022-11-04T05:30:33;9.50;99.90
52211;DHT22;38179;52.756;6.906;2022-11-04T05:32:59;9.50;99.90
52211;DHT22;38179;52.756;6.906;2022-11-04T05:35:25;9.40;99.90
52211;DHT22;38179;52.756;6.906;2022-11-04T05:37:51;9.40;99.90
52211;DHT22;38179;52.756;6.906;2022-11-04T05:40:17;9.40;99.90
52211;DHT22;38179;52.756;6.906;2022-11-04T05:42:43;9.40;99.90
52211;DHT22;38179;52.756;6.906;2022-11-04T05:45:09;9.40;99.90
52211;DHT22;38179;52.756;6.906;2022-11-04T05:47:35;9.40;99.90
52211;DHT22;38179;52.756;6.906;2022-11-04T05:50:01;9.30;99.90
52211;DHT22;38179;52.756;6.906;2022-11-04T05:52:26;9.30;99.90
52211;DHT22;38179;52.756;6.906;2022-11-04T05:54:52;9.20;99.90
52211;DHT22;38179;52.756;6.906;2022-11-04T05:57:18;9.20;99.90
52211;DHT22;38179;52.756;6.906;2022-11-04T05:59:44;9.20;99.90
52211;DHT22;38179;52.756;6.906;2022-11-04T06:02:10;9.20;99.90
52211;DHT22;38179;52.756;6.906;2022-11-04T06:04:36;9.10;99.90
52211;DHT22;38179;52.756;6.906;2022-11-04T06:07:02;9.10;99.90
52211;DHT22;38179;52.756;6.906;2022-11-04T06:09:28;9.10;99.90
52211;DHT22;38179;52.756;6.906;2022-11-04T06:12:11;9.00;99.90
52211;DHT22;38179;52.756;6.906;2022-11-04T06:14:40;9.00;99.90
52211;DHT22;38179;52.756;6.906;2022-11-04T06:17:06;9.00;99.90
52211;DHT22;38179;52.756;6.906;2022-11-04T06:19:32;9.00;99.90
52211;DHT22;38179;52.756;6.906;2022-11-04T06:21:58;8.90;99.90
52211;DHT22;38179;52.756;6.906;2022-11-04T06:24:25;8.90;99.90
52211;DHT22;38179;52.756;6.906;2022-11-04T06:26:50;8.80;99.90
52211;DHT22;38179;52.756;6.906;2022-11-04T06:29:16;8.80;99.90
52211;DHT22;38179;52.756;6.906;2022-11-04T06:31:42;8.80;99.90
52211;DHT22;38179;52.756;6.906;2022-11-04T06:34:08;8.90;99.90
52211;DHT22;38179;52.756;6.906;2022-11-04T06:36:34;8.90;99.90
52211;DHT22;38179;52.756;6.906;2022-11-04T06:39:00;8.90;99.90
52211;DHT22;38179;52.756;6.906;2022-11-04T06:41:26;8.90;99.90
52211;DHT22;38179;52.756;6.906;2022-11-04T06:43:52;8.90;99.90
52211;DHT22;38179;52.756;6.906;2022-11-04T06:46:37;8.90;99.90
52211;DHT22;38179;52.756;6.906;2022-11-04T06:49:11;8.90;99.90
52211;DHT22;38179;52.756;6.906;2022-11-04T06:51:38;8.90;99.90
52211;DHT22;38179;52.756;6.906;2022-11-04T06:54:04;8.90;99.90
52211;DHT22;38179;52.756;6.906;2022-11-04T06:56:30;8.90;99.90
52211;DHT22;38179;52.756;6.906;2022-11-04T06:58:56;8.90;99.90
52211;DHT22;38179;52.756;6.906;2022-11-04T07:01:25;8.90;99.90
52211;DHT22;38179;52.756;6.906;2022-11-04T07:03:53;8.80;99.90
52211;DHT22;38179;52.756;6.906;2022-11-04T07:06:20;8.80;99.90
52211;DHT22;38179;52.756;6.906;2022-11-04T07:08:47;8.80;99.90
52211;DHT22;38179;52.756;6.906;2022-11-04T07:11:14;8.80;99.90
52211;DHT22;38179;52.756;6.906;2022-11-04T07:13:41;8.80;99.90
52211;DHT22;38179;52.756;6.906;2022-11-04T07:16:08;8.80;99.90
52211;DHT22;38179;52.756;6.906;2022-11-04T07:18:34;8.80;99.90
52211;DHT22;38179;52.756;6.906;2022-11-04T07:21:01;8.80;99.90
52211;DHT22;38179;52.756;6.906;2022-11-04T07:23:27;8.80;99.90
52211;DHT22;38179;52.756;6.906;2022-11-04T07:25:53;8.80;99.90
52211;DHT22;38179;52.756;6.906;2022-11-04T07:28:19;8.70;99.90
52211;DHT22;38179;52.756;6.906;2022-11-04T07:30:45;8.70;99.90
52211;DHT22;38179;52.756;6.906;2022-11-04T07:33:11;8.80;99.90
52211;DHT22;38179;52.756;6.906;2022-11-04T07:35:37;8.80;99.90
52211;DHT22;38179;52.756;6.906;2022-11-04T07:38:04;8.80;99.90
52211;DHT22;38179;52.756;6.906;2022-11-04T07:40:30;8.80;99.90
52211;DHT22;38179;52.756;6.906;2022-11-04T07:42:59;8.90;99.90
52211;DHT22;38179;52.756;6.906;2022-11-04T07:45:26;8.90;99.90
52211;DHT22;38179;52.756;6.906;2022-11-04T07:47:51;8.90;99.90
52211;DHT22;38179;52.756;6.906;2022-11-04T07:50:17;8.90;99.90
52211;DHT22;38179;52.756;6.906;2022-11-04T07:52:43;9.00;99.90
52211;DHT22;38179;52.756;6.906;2022-11-04T07:55:10;8.90;99.90
52211;DHT22;38179;52.756;6.906;2022-11-04T07:57:38;8.90;99.90
52211;DHT22;38179;52.756;6.906;2022-11-04T08:00:04;8.90;99.90
52211;DHT22;38179;52.756;6.906;2022-11-04T08:02:34;8.90;99.90
52211;DHT22;38179;52.756;6.906;2022-11-04T08:04:59;8.90;99.90
52211;DHT22;38179;52.756;6.906;2022-11-04T08:07:25;8.90;99.90
52211;DHT22;38179;52.756;6.906;2022-11-04T08:09:51;8.90;99.90
52211;DHT22;38179;52.756;6.906;2022-11-04T08:12:17;9.00;99.90
52211;DHT22;38179;52.756;6.906;2022-11-04T08:14:45;9.00;99.90
52211;DHT22;38179;52.756;6.906;2022-11-04T08:17:11;9.00;99.90
52211;DHT22;38179;52.756;6.906;2022-11-04T08:19:37;9.00;99.90
52211;DHT22;38179;52.756;6.906;2022-11-04T08:22:03;9.00;99.90
52211;DHT22;38179;52.756;6.906;2022-11-04T08:24:28;9.10;99.90
52211;DHT22;38179;52.756;6.906;2022-11-04T08:26:54;9.20;99.90
52211;DHT22;38179;52.756;6.906;2022-11-04T08:29:20;9.20;99.90
52211;DHT22;38179;52.756;6.906;2022-11-04T08:31:46;9.20;99.90
52211;DHT22;38179;52.756;6.906;2022-11-04T08:34:12;9.20;99.90
52211;DHT22;38179;52.756;6.906;2022-11-04T08:36:39;9.20;99.90
52211;DHT22;38179;52.756;6.906;2022-11-04T08:39:06;9.20;99.90
52211;DHT22;38179;52.756;6.906;2022-11-04T08:41:32;9.20;99.90
52211;DHT22;38179;52.756;6.906;2022-11-04T08:44:00;9.20;99.90
52211;DHT22;38179;52.756;6.906;2022-11-04T08:46:32;9.30;99.90
52211;DHT22;38179;52.756;6.906;2022-11-04T08:48:59;9.30;99.90
52211;DHT22;38179;52.756;6.906;2022-11-04T08:51:26;9.40;99.90
52211;DHT22;38179;52.756;6.906;2022-11-04T08:53:53;9.50;99.90
52211;DHT22;38179;52.756;6.906;2022-11-04T08:56:22;9.50;99.90
52211;DHT22;38179;52.756;6.906;2022-11-04T08:58:49;9.60;99.90
52211;DHT22;38179;52.756;6.906;2022-11-04T09:01:16;9.60;99.90
52211;DHT22;38179;52.756;6.906;2022-11-04T09:03:42;9.60;99.90
52211;DHT22;38179;52.756;6.906;2022-11-04T09:06:11;9.60;99.90
52211;DHT22;38179;52.756;6.906;2022-11-04T09:08:38;9.60;99.90
52211;DHT22;38179;52.756;6.906;2022-11-04T09:11:09;9.50;99.90
52211;DHT22;38179;52.756;6.906;2022-11-04T09:13:37;9.60;99.90
52211;DHT22;38179;52.756;6.906;2022-11-04T09:16:03;9.60;99.90
52211;DHT22;38179;52.756;6.906;2022-11-04T09:18:31;9.60;99.90
52211;DHT22;38179;52.756;6.906;2022-11-04T09:21:00;9.50;99.90
52211;DHT22;38179;52.756;6.906;2022-11-04T09:23:27;9.50;99.90
52211;DHT22;38179;52.756;6.906;2022-11-04T09:25:53;9.50;99.90
52211;DHT22;38179;52.756;6.906;2022-11-04T09:28:21;9.60;99.90
52211;DHT22;38179;52.756;6.906;2022-11-04T09:30:47;9.60;99.90
52211;DHT22;38179;52.756;6.906;2022-11-04T09:33:13;9.50;99.90
52211;DHT22;38179;52.756;6.906;2022-11-04T09:35:39;9.50;99.90
52211;DHT22;38179;52.756;6.906;2022-11-04T09:38:05;9.50;99.90
52211;DHT22;38179;52.756;6.906;2022-11-04T09:40:34;9.60;99.90
52211;DHT22;38179;52.756;6.906;2022-11-04T09:43:19;9.60;99.90
52211;DHT22;38179;52.756;6.906;2022-11-04T09:45:47;9.60;99.90
52211;DHT22;38179;52.756;6.906;2022-11-04T09:48:27;9.70;99.90
52211;DHT22;38179;52.756;6.906;2022-11-04T09:51:00;9.70;99.90
52211;DHT22;38179;52.756;6.906;2022-11-04T09:53:39;9.80;99.90
52211;DHT22;38179;52.756;6.906;2022-11-04T09:56:15;9.80;99.90
52211;DHT22;38179;52.756;6.906;2022-11-04T09:58:42;9.80;99.90
52211;DHT22;38179;52.756;6.906;2022-11-04T10:11:46;9.90;99.90
52211;DHT22;38179;52.756;6.906;2022-11-04T10:17:20;10.10;99.90
52211;DHT22;38179;52.756;6.906;2022-11-04T10:22:23;10.10;99.90
52211;DHT22;38179;52.756;6.906;2022-11-04T10:25:07;10.10;99.90
52211;DHT22;38179;52.756;6.906;2022-11-04T10:27:37;10.10;99.90
52211;DHT22;38179;52.756;6.906;2022-11-04T10:35:41;10.10;99.90
52211;DHT22;38179;52.756;6.906;2022-11-04T10:40:53;10.10;99.90
52211;DHT22;38179;52.756;6.906;2022-11-04T10:43:33;10.00;99.90
52211;DHT22;38179;52.756;6.906;2022-11-04T10:48:54;10.10;99.90
52211;DHT22;38179;52.756;6.906;2022-11-04T10:51:22;10.10;99.90
52211;DHT22;38179;52.756;6.906;2022-11-04T10:54:00;10.10;99.90
52211;DHT22;38179;52.756;6.906;2022-11-04T10:56:46;10.20;99.90
52211;DHT22;38179;52.756;6.906;2022-11-04T10:59:26;10.20;99.90
52211;DHT22;38179;52.756;6.906;2022-11-04T11:01:58;10.30;99.90
52211;DHT22;38179;52.756;6.906;2022-11-04T11:04:29;10.20;99.90
52211;DHT22;38179;52.756;6.906;2022-11-04T11:06:58;10.20;99.90
52211;DHT22;38179;52.756;6.906;2022-11-04T11:09:29;10.30;99.90
52211;DHT22;38179;52.756;6.906;2022-11-04T11:12:05;10.30;99.90
52211;DHT22;38179;52.756;6.906;2022-11-04T11:14:42;10.30;99.90
52211;DHT22;38179;52.756;6.906;2022-11-04T11:17:38;10.40;99.90
52211;DHT22;38179;52.756;6.906;2022-11-04T11:20:20;10.40;99.90
52211;DHT22;38179;52.756;6.906;2022-11-04T11:22:48;10.40;99.90
52211;DHT22;38179;52.756;6.906;2022-11-04T11:25:32;10.50;99.90
52211;DHT22;38179;52.756;6.906;2022-11-04T11:30:33;10.50;99.90
52211;DHT22;38179;52.756;6.906;2022-11-04T11:33:14;10.60;99.90
52211;DHT22;38179;52.756;6.906;2022-11-04T11:35:48;10.70;99.90
52211;DHT22;38179;52.756;6.906;2022-11-04T11:38:26;10.80;99.90
52211;DHT22;38179;52.756;6.906;2022-11-04T11:41:09;10.90;99.90
52211;DHT22;38179;52.756;6.906;2022-11-04T11:43:41;11.00;99.90
52211;DHT22;38179;52.756;6.906;2022-11-04T11:46:07;11.00;99.90
52211;DHT22;38179;52.756;6.906;2022-11-04T11:48:50;11.00;99.90
52211;DHT22;38179;52.756;6.906;2022-11-04T11:51:46;11.00;99.90
52211;DHT22;38179;52.756;6.906;2022-11-04T11:54:31;11.00;99.90
52211;DHT22;38179;52.756;6.906;2022-11-04T11:57:07;11.00;99.90
52211;DHT22;38179;52.756;6.906;2022-11-04T12:00:05;11.00;99.90
52211;DHT22;38179;52.756;6.906;2022-11-04T12:02:59;11.10;99.90
52211;DHT22;38179;52.756;6.906;2022-11-04T12:10:59;11.20;99.90
52211;DHT22;38179;52.756;6.906;2022-11-04T12:13:40;11.30;99.90
52211;DHT22;38179;52.756;6.906;2022-11-04T12:21:43;11.40;99.90
52211;DHT22;38179;52.756;6.906;2022-11-04T12:27:05;11.40;99.90
52211;DHT22;38179;52.756;6.906;2022-11-04T12:29:45;11.50;99.90
52211;DHT22;38179;52.756;6.906;2022-11-04T12:32:28;11.50;99.90
52211;DHT22;38179;52.756;6.906;2022-11-04T12:37:53;11.70;99.90
52211;DHT22;38179;52.756;6.906;2022-11-04T12:40:28;11.70;99.90
52211;DHT22;38179;52.756;6.906;2022-11-04T12:56:17;12.00;99.90
52211;DHT22;38179;52.756;6.906;2022-11-04T13:02:34;12.10;99.90
52211;DHT22;38179;52.756;6.906;2022-11-04T13:04:44;12.10;99.90
52211;DHT22;38179;52.756;6.906;2022-11-04T13:07:13;12.10;99.90
52211;DHT22;38179;52.756;6.906;2022-11-04T13:09:56;12.10;99.90
52211;DHT22;38179;52.756;6.906;2022-11-04T13:12:58;12.20;99.90
52211;DHT22;38179;52.756;6.906;2022-11-04T13:15:24;12.20;99.90
52211;DHT22;38179;52.756;6.906;2022-11-04T13:17:58;12.10;99.90
52211;DHT22;38179;52.756;6.906;2022-11-04T13:26:16;11.60;99.90
52211;DHT22;38179;52.756;6.906;2022-11-04T13:28:45;11.50;99.90
52211;DHT22;38179;52.756;6.906;2022-11-04T13:31:28;11.20;99.90
52211;DHT22;38179;52.756;6.906;2022-11-04T13:39:51;10.90;99.90
52211;DHT22;38179;52.756;6.906;2022-11-04T13:45:14;10.60;99.90
52211;DHT22;38179;52.756;6.906;2022-11-04T13:47:48;10.40;99.90
52211;DHT22;38179;52.756;6.906;2022-11-04T13:52:56;10.40;99.90
52211;DHT22;38179;52.756;6.906;2022-11-04T13:55:22;10.30;99.90
52211;DHT22;38179;52.756;6.906;2022-11-04T13:57:51;10.30;99.90
52211;DHT22;38179;52.756;6.906;2022-11-04T14:00:24;10.30;99.90
52211;DHT22;38179;52.756;6.906;2022-11-04T14:02:51;10.20;99.90
52211;DHT22;38179;52.756;6.906;2022-11-04T14:18:44;10.00;99.90
52211;DHT22;38179;52.756;6.906;2022-11-04T14:23:42;10.10;99.90
52211;DHT22;38179;52.756;6.906;2022-11-04T14:26:10;10.00;99.90
52211;DHT22;38179;52.756;6.906;2022-11-04T14:28:38;10.00;99.90
52211;DHT22;38179;52.756;6.906;2022-11-04T14:31:07;10.00;99.90
52211;DHT22;38179;52.756;6.906;2022-11-04T14:33:53;10.00;99.90
52211;DHT22;38179;52.756;6.906;2022-11-04T14:44:31;9.90;99.90
52211;DHT22;38179;52.756;6.906;2022-11-04T14:49:46;9.80;99.90
52211;DHT22;38179;52.756;6.906;2022-11-04T14:52:36;9.90;99.90
52211;DHT22;38179;52.756;6.906;2022-11-04T14:57:46;9.90;99.90
52211;DHT22;38179;52.756;6.906;2022-11-04T15:05:31;9.80;99.90
52211;DHT22;38179;52.756;6.906;2022-11-04T15:11:19;9.80;99.90
52211;DHT22;38179;52.756;6.906;2022-11-04T15:14:24;9.70;99.90
52211;DHT22;38179;52.756;6.906;2022-11-04T15:16:58;9.70;99.90
52211;DHT22;38179;52.756;6.906;2022-11-04T15:19:28;9.70;99.90
52211;DHT22;38179;52.756;6.906;2022-11-04T15:21:55;9.60;99.90
52211;DHT22;38179;52.756;6.906;2022-11-04T15:24:22;9.60;99.90
52211;DHT22;38179;52.756;6.906;2022-11-04T15:26:50;9.60;99.90
52211;DHT22;38179;52.756;6.906;2022-11-04T15:29:19;9.50;99.90
52211;DHT22;38179;52.756;6.906;2022-11-04T15:31:59;9.50;99.90
52211;DHT22;38179;52.756;6.906;2022-11-04T15:34:26;9.50;99.90
52211;DHT22;38179;52.756;6.906;2022-11-04T15:37:01;9.40;99.90
52211;DHT22;38179;52.756;6.906;2022-11-04T15:39:38;9.50;99.90
52211;DHT22;38179;52.756;6.906;2022-11-04T15:42:22;9.60;99.90
52211;DHT22;38179;52.756;6.906;2022-11-04T15:45:32;9.80;99.90
52211;DHT22;38179;52.756;6.906;2022-11-04T15:51:10;9.80;99.90
52211;DHT22;38179;52.756;6.906;2022-11-04T15:53:47;9.60;99.90
52211;DHT22;38179;52.756;6.906;2022-11-04T15:56:21;9.50;99.90
52211;DHT22;38179;52.756;6.906;2022-11-04T15:58:47;9.40;99.90
52211;DHT22;38179;52.756;6.906;2022-11-04T16:01:17;9.40;99.90
52211;DHT22;38179;52.756;6.906;2022-11-04T16:03:55;9.30;99.90
52211;DHT22;38179;52.756;6.906;2022-11-04T16:06:39;9.30;99.90
52211;DHT22;38179;52.756;6.906;2022-11-04T16:11:37;9.30;99.90
52211;DHT22;38179;52.756;6.906;2022-11-04T16:14:23;9.30;99.90
52211;DHT22;38179;52.756;6.906;2022-11-04T16:16:51;9.20;99.90
52211;DHT22;38179;52.756;6.906;2022-11-04T16:19:19;9.30;99.90
52211;DHT22;38179;52.756;6.906;2022-11-04T16:21:46;9.20;99.90
52211;DHT22;38179;52.756;6.906;2022-11-04T16:24:28;9.20;99.90
52211;DHT22;38179;52.756;6.906;2022-11-04T16:26:55;9.20;99.90
52211;DHT22;38179;52.756;6.906;2022-11-04T16:29:32;9.20;99.90
52211;DHT22;38179;52.756;6.906;2022-11-04T16:34:43;9.10;99.90
52211;DHT22;38179;52.756;6.906;2022-11-04T16:37:11;9.10;99.90
52211;DHT22;38179;52.756;6.906;2022-11-04T16:39:37;9.10;99.90
52211;DHT22;38179;52.756;6.906;2022-11-04T16:42:04;9.10;99.90
52211;DHT22;38179;52.756;6.906;2022-11-04T16:44:31;9.00;99.90
52211;DHT22;38179;52.756;6.906;2022-11-04T16:46:57;9.00;99.90
52211;DHT22;38179;52.756;6.906;2022-11-04T16:49:24;9.00;99.90
52211;DHT22;38179;52.756;6.906;2022-11-04T16:51:55;8.90;99.90
52211;DHT22;38179;52.756;6.906;2022-11-04T16:54:21;8.90;99.90
52211;DHT22;38179;52.756;6.906;2022-11-04T16:56:49;8.90;99.90
52211;DHT22;38179;52.756;6.906;2022-11-04T16:59:15;9.00;99.90
52211;DHT22;38179;52.756;6.906;2022-11-04T17:01:41;8.90;99.90
52211;DHT22;38179;52.756;6.906;2022-11-04T17:04:07;8.90;99.90
52211;DHT22;38179;52.756;6.906;2022-11-04T17:06:33;9.00;99.90
52211;DHT22;38179;52.756;6.906;2022-11-04T17:09:00;9.00;99.90
52211;DHT22;38179;52.756;6.906;2022-11-04T17:11:26;8.90;99.90
52211;DHT22;38179;52.756;6.906;2022-11-04T17:13:55;8.90;99.90
52211;DHT22;38179;52.756;6.906;2022-11-04T17:16:21;8.90;99.90
52211;DHT22;38179;52.756;6.906;2022-11-04T17:18:47;8.90;99.90
52211;DHT22;38179;52.756;6.906;2022-11-04T17:21:14;8.90;99.90
52211;DHT22;38179;52.756;6.906;2022-11-04T17:23:42;8.80;99.90
52211;DHT22;38179;52.756;6.906;2022-11-04T17:26:11;8.80;99.90
52211;DHT22;38179;52.756;6.906;2022-11-04T17:28:37;8.80;99.90
52211;DHT22;38179;52.756;6.906;2022-11-04T17:31:03;8.70;99.90
52211;DHT22;38179;52.756;6.906;2022-11-04T17:33:28;8.70;99.90
52211;DHT22;38179;52.756;6.906;2022-11-04T17:35:54;8.70;99.90
52211;DHT22;38179;52.756;6.906;2022-11-04T17:38:21;8.70;99.90
52211;DHT22;38179;52.756;6.906;2022-11-04T17:40:47;8.70;99.90
52211;DHT22;38179;52.756;6.906;2022-11-04T17:43:31;8.70;99.90
52211;DHT22;38179;52.756;6.906;2022-11-04T17:46:16;8.70;99.90
52211;DHT22;38179;52.756;6.906;2022-11-04T17:49:14;8.60;99.90
52211;DHT22;38179;52.756;6.906;2022-11-04T17:51:43;8.70;99.90
52211;DHT22;38179;52.756;6.906;2022-11-04T17:54:09;8.70;99.90
52211;DHT22;38179;52.756;6.906;2022-11-04T17:56:37;8.70;99.90
52211;DHT22;38179;52.756;6.906;2022-11-04T17:59:04;8.70;99.90
52211;DHT22;38179;52.756;6.906;2022-11-04T18:01:31;8.70;99.90
52211;DHT22;38179;52.756;6.906;2022-11-04T18:03:57;8.70;99.90
52211;DHT22;38179;52.756;6.906;2022-11-04T18:06:24;8.60;99.90
52211;DHT22;38179;52.756;6.906;2022-11-04T18:08:52;8.60;99.90
52211;DHT22;38179;52.756;6.906;2022-11-04T18:11:19;8.60;99.90
52211;DHT22;38179;52.756;6.906;2022-11-04T18:14:03;8.50;99.90
52211;DHT22;38179;52.756;6.906;2022-11-04T18:16:29;8.50;99.90
52211;DHT22;38179;52.756;6.906;2022-11-04T18:18:59;8.50;99.90
52211;DHT22;38179;52.756;6.906;2022-11-04T18:21:26;8.40;99.90
52211;DHT22;38179;52.756;6.906;2022-11-04T18:23:54;8.40;99.90
52211;DHT22;38179;52.756;6.906;2022-11-04T18:26:20;8.40;99.90
52211;DHT22;38179;52.756;6.906;2022-11-04T18:28:47;8.40;99.90
52211;DHT22;38179;52.756;6.906;2022-11-04T18:31:25;8.40;99.90
52211;DHT22;38179;52.756;6.906;2022-11-04T18:33:51;8.40;99.90
52211;DHT22;38179;52.756;6.906;2022-11-04T18:36:17;8.40;99.90
52211;DHT22;38179;52.756;6.906;2022-11-04T18:38:44;8.30;99.90
52211;DHT22;38179;52.756;6.906;2022-11-04T18:41:10;8.30;99.90
52211;DHT22;38179;52.756;6.906;2022-11-04T18:43:36;8.30;99.90
52211;DHT22;38179;52.756;6.906;2022-11-04T18:46:13;8.30;99.90
52211;DHT22;38179;52.756;6.906;2022-11-04T18:48:39;8.30;99.90
52211;DHT22;38179;52.756;6.906;2022-11-04T18:51:08;8.20;99.90
52211;DHT22;38179;52.756;6.906;2022-11-04T18:53:35;8.10;99.90